sensor_id;sensor_type;location;lat;lon;timestamp;P1;durP1;ratioP1;P2;durP2;ratioP2
6177;SDS011;3122;48.208;11.174;2023-10-31T00:02:50;1.67;;;1.57;;
6177;SDS011;3122;48.208;11.174;2023-10-31T00:07:50;1.30;;;1.10;;
6177;SDS011;3122;48.208;11.174;2023-10-31T00:12:51;1.30;;;1.20;;
6177;SDS011;3122;48.208;11.174;2023-10-31T00:17:52;1.00;;;1.00;;
6177;SDS011;3122;48.208;11.174;2023-10-31T00:22:52;1.10;;;1.10;;
6177;SDS011;3122;48.208;11.174;2023-10-31T00:27:53;1.00;;;1.00;;
6177;SDS011;3122;48.208;11.174;2023-10-31T00:32:53;1.27;;;0.83;;
6177;SDS011;3122;48.208;11.174;2023-10-31T00:37:54;1.30;;;1.20;;
6177;SDS011;3122;48.208;11.174;2023-10-31T00:42:54;0.77;;;0.77;;
6177;SDS011;3122;48.208;11.174;2023-10-31T00:47:58;0.90;;;0.90;;
6177;SDS011;3122;48.208;11.174;2023-10-31T00:52:58;0.90;;;0.90;;
6177;SDS011;3122;48.208;11.174;2023-10-31T00:57:59;1.80;;;0.87;;
6177;SDS011;3122;48.208;11.174;2023-10-31T01:02:59;0.90;;;0.90;;
6177;SDS011;3122;48.208;11.174;2023-10-31T01:08:00;0.90;;;0.90;;
6177;SDS011;3122;48.208;11.174;2023-10-31T01:13:01;1.00;;;1.00;;
6177;SDS011;3122;48.208;11.174;2023-10-31T01:18:01;0.90;;;0.80;;
6177;SDS011;3122;48.208;11.174;2023-10-31T01:23:02;0.83;;;0.83;;
6177;SDS011;3122;48.208;11.174;2023-10-31T01:28:03;0.77;;;0.70;;
6177;SDS011;3122;48.208;11.174;2023-10-31T01:33:03;0.70;;;0.70;;
6177;SDS011;3122;48.208;11.174;2023-10-31T01:38:04;1.43;;;0.70;;
6177;SDS011;3122;48.208;11.174;2023-10-31T01:43:04;0.70;;;0.70;;
6177;SDS011;3122;48.208;11.174;2023-10-31T01:48:05;4.53;;;0.70;;
6177;SDS011;3122;48.208;11.174;2023-10-31T01:53:05;0.60;;;0.60;;
6177;SDS011;3122;48.208;11.174;2023-10-31T01:58:06;0.70;;;0.70;;
6177;SDS011;3122;48.208;11.174;2023-10-31T02:03:07;0.70;;;0.70;;
6177;SDS011;3122;48.208;11.174;2023-10-31T02:08:07;0.60;;;0.60;;
6177;SDS011;3122;48.208;11.174;2023-10-31T02:13:11;0.60;;;0.60;;
6177;SDS011;3122;48.208;11.174;2023-10-31T02:18:12;0.70;;;0.70;;
6177;SDS011;3122;48.208;11.174;2023-10-31T02:23:15;0.77;;;0.77;;
6177;SDS011;3122;48.208;11.174;2023-10-31T02:28:15;0.80;;;0.80;;
6177;SDS011;3122;48.208;11.174;2023-10-31T02:33:16;0.60;;;0.60;;
6177;SDS011;3122;48.208;11.174;2023-10-31T02:38:16;0.80;;;0.80;;
6177;SDS011;3122;48.208;11.174;2023-10-31T02:43:17;0.70;;;0.70;;
6177;SDS011;3122;48.208;11.174;2023-10-31T02:48:18;1.17;;;0.80;;
6177;SDS011;3122;48.208;11.174;2023-10-31T02:53:18;0.70;;;0.70;;
6177;SDS011;3122;48.208;11.174;2023-10-31T02:58:19;0.70;;;0.70;;
6177;SDS011;3122;48.208;11.174;2023-10-31T03:03:19;2.73;;;1.40;;
6177;SDS011;3122;48.208;11.174;2023-10-31T03:08:20;0.60;;;0.60;;
6177;SDS011;3122;48.208;11.174;2023-10-31T03:13:21;1.83;;;0.80;;
6177;SDS011;3122;48.208;11.174;2023-10-31T03:18:21;1.27;;;0.70;;
6177;SDS011;3122;48.208;11.174;2023-10-31T03:23:23;0.77;;;0.77;;
6177;SDS011;3122;48.208;11.174;2023-10-31T03:28:23;0.70;;;0.70;;
6177;SDS011;3122;48.208;11.174;2023-10-31T03:33:24;0.80;;;0.80;;
6177;SDS011;3122;48.208;11.174;2023-10-31T03:38:24;0.80;;;0.80;;
6177;SDS011;3122;48.208;11.174;2023-10-31T03:43:25;1.17;;;0.93;;
6177;SDS011;3122;48.208;11.174;2023-10-31T03:48:26;0.80;;;0.80;;
6177;SDS011;3122;48.208;11.174;2023-10-31T03:53:26;0.93;;;0.93;;
6177;SDS011;3122;48.208;11.174;2023-10-31T03:58:27;0.80;;;0.80;;
6177;SDS011;3122;48.208;11.174;2023-10-31T04:03:29;1.90;;;0.90;;
6177;SDS011;3122;48.208;11.174;2023-10-31T04:08:29;1.37;;;0.80;;
6177;SDS011;3122;48.208;11.174;2023-10-31T04:13:30;0.90;;;0.90;;
6177;SDS011;3122;48.208;11.174;2023-10-31T04:18:30;0.90;;;0.80;;
6177;SDS011;3122;48.208;11.174;2023-10-31T04:23:31;0.90;;;0.90;;
6177;SDS011;3122;48.208;11.174;2023-10-31T04:28:32;5.60;;;3.47;;
6177;SDS011;3122;48.208;11.174;2023-10-31T04:33:32;1.20;;;1.10;;
6177;SDS011;3122;48.208;11.174;2023-10-31T04:38:33;1.40;;;1.30;;
6177;SDS011;3122;48.208;11.174;2023-10-31T04:43:37;1.60;;;1.30;;
6177;SDS011;3122;48.208;11.174;2023-10-31T04:48:37;1.33;;;1.33;;
6177;SDS011;3122;48.208;11.174;2023-10-31T04:53:38;3.30;;;1.80;;
6177;SDS011;3122;48.208;11.174;2023-10-31T04:58:39;1.63;;;1.53;;
6177;SDS011;3122;48.208;11.174;2023-10-31T05:03:40;1.23;;;1.03;;
6177;SDS011;3122;48.208;11.174;2023-10-31T05:08:40;4.50;;;2.10;;
6177;SDS011;3122;48.208;11.174;2023-10-31T05:13:41;1.53;;;1.30;;
6177;SDS011;3122;48.208;11.174;2023-10-31T05:18:42;1.40;;;1.30;;
6177;SDS011;3122;48.208;11.174;2023-10-31T05:23:42;1.77;;;1.20;;
6177;SDS011;3122;48.208;11.174;2023-10-31T05:28:43;4.20;;;1.20;;
6177;SDS011;3122;48.208;11.174;2023-10-31T05:33:43;3.63;;;1.30;;
6177;SDS011;3122;48.208;11.174;2023-10-31T05:38:44;1.83;;;1.30;;
6177;SDS011;3122;48.208;11.174;2023-10-31T05:43:44;2.90;;;1.20;;
6177;SDS011;3122;48.208;11.174;2023-10-31T05:48:45;1.53;;;1.03;;
6177;SDS011;3122;48.208;11.174;2023-10-31T05:53:47;1.30;;;1.20;;
6177;SDS011;3122;48.208;11.174;2023-10-31T05:58:48;3.37;;;1.20;;
6177;SDS011;3122;48.208;11.174;2023-10-31T06:03:48;2.07;;;1.23;;
6177;SDS011;3122;48.208;11.174;2023-10-31T06:08:49;2.30;;;1.20;;
6177;SDS011;3122;48.208;11.174;2023-10-31T06:13:50;3.47;;;1.50;;
6177;SDS011;3122;48.208;11.174;2023-10-31T06:18:50;1.37;;;1.27;;
6177;SDS011;3122;48.208;11.174;2023-10-31T06:23:51;1.30;;;1.13;;
6177;SDS011;3122;48.208;11.174;2023-10-31T06:28:51;2.63;;;1.60;;
6177;SDS011;3122;48.208;11.174;2023-10-31T06:33:52;1.50;;;1.40;;
6177;SDS011;3122;48.208;11.174;2023-10-31T06:38:52;1.60;;;1.50;;
6177;SDS011;3122;48.208;11.174;2023-10-31T06:43:53;1.40;;;1.30;;
6177;SDS011;3122;48.208;11.174;2023-10-31T06:48:53;2.10;;;1.40;;
6177;SDS011;3122;48.208;11.174;2023-10-31T06:53:54;1.90;;;1.57;;
6177;SDS011;3122;48.208;11.174;2023-10-31T06:58:55;2.23;;;1.50;;
6177;SDS011;3122;48.208;11.174;2023-10-31T07:03:55;1.73;;;1.30;;
6177;SDS011;3122;48.208;11.174;2023-10-31T07:08:56;3.83;;;2.07;;
6177;SDS011;3122;48.208;11.174;2023-10-31T07:13:57;2.20;;;1.27;;
6177;SDS011;3122;48.208;11.174;2023-10-31T07:18:58;1.70;;;1.60;;
6177;SDS011;3122;48.208;11.174;2023-10-31T07:23:59;1.30;;;1.30;;
6177;SDS011;3122;48.208;11.174;2023-10-31T07:28:59;2.03;;;1.33;;
6177;SDS011;3122;48.208;11.174;2023-10-31T07:34:00;2.60;;;1.73;;
6177;SDS011;3122;48.208;11.174;2023-10-31T07:39:01;3.33;;;1.80;;
6177;SDS011;3122;48.208;11.174;2023-10-31T07:44:03;2.30;;;1.57;;
6177;SDS011;3122;48.208;11.174;2023-10-31T07:49:04;3.80;;;2.17;;
6177;SDS011;3122;48.208;11.174;2023-10-31T07:54:05;2.57;;;2.30;;
6177;SDS011;3122;48.208;11.174;2023-10-31T07:59:05;1.70;;;1.60;;
6177;SDS011;3122;48.208;11.174;2023-10-31T08:04:07;3.30;;;1.40;;
6177;SDS011;3122;48.208;11.174;2023-10-31T08:09:08;1.80;;;1.50;;
6177;SDS011;3122;48.208;11.174;2023-10-31T08:14:08;4.00;;;2.37;;
6177;SDS011;3122;48.208;11.174;2023-10-31T08:19:10;1.97;;;1.33;;
6177;SDS011;3122;48.208;11.174;2023-10-31T08:24:12;1.53;;;1.43;;
6177;SDS011;3122;48.208;11.174;2023-10-31T08:29:13;2.00;;;1.77;;
6177;SDS011;3122;48.208;11.174;2023-10-31T08:34:14;2.33;;;2.13;;
6177;SDS011;3122;48.208;11.174;2023-10-31T08:39:14;1.97;;;1.50;;
6177;SDS011;3122;48.208;11.174;2023-10-31T08:44:15;2.73;;;2.03;;
6177;SDS011;3122;48.208;11.174;2023-10-31T08:49:16;2.30;;;1.67;;
6177;SDS011;3122;48.208;11.174;2023-10-31T08:54:17;12.43;;;1.70;;
6177;SDS011;3122;48.208;11.174;2023-10-31T08:59:17;2.23;;;1.20;;
6177;SDS011;3122;48.208;11.174;2023-10-31T09:04:18;1.70;;;1.40;;
6177;SDS011;3122;48.208;11.174;2023-10-31T09:09:18;2.70;;;1.23;;
6177;SDS011;3122;48.208;11.174;2023-10-31T09:14:19;4.73;;;1.40;;
6177;SDS011;3122;48.208;11.174;2023-10-31T09:19:20;4.93;;;1.40;;
6177;SDS011;3122;48.208;11.174;2023-10-31T09:24:21;1.87;;;1.40;;
6177;SDS011;3122;48.208;11.174;2023-10-31T09:29:21;2.90;;;1.70;;
6177;SDS011;3122;48.208;11.174;2023-10-31T09:34:22;2.90;;;1.40;;
6177;SDS011;3122;48.208;11.174;2023-10-31T09:39:22;13.03;;;1.60;;
6177;SDS011;3122;48.208;11.174;2023-10-31T09:44:23;2.50;;;1.70;;
6177;SDS011;3122;48.208;11.174;2023-10-31T09:49:23;3.33;;;1.83;;
6177;SDS011;3122;48.208;11.174;2023-10-31T09:54:25;1.67;;;1.30;;
6177;SDS011;3122;48.208;11.174;2023-10-31T09:59:27;1.90;;;1.40;;
6177;SDS011;3122;48.208;11.174;2023-10-31T10:04:28;3.67;;;1.43;;
6177;SDS011;3122;48.208;11.174;2023-10-31T10:09:30;7.43;;;1.47;;
6177;SDS011;3122;48.208;11.174;2023-10-31T10:14:32;1.23;;;1.13;;
6177;SDS011;3122;48.208;11.174;2023-10-31T10:19:32;3.80;;;1.67;;
6177;SDS011;3122;48.208;11.174;2023-10-31T10:24:33;4.07;;;1.87;;
6177;SDS011;3122;48.208;11.174;2023-10-31T10:29:34;5.30;;;1.53;;
6177;SDS011;3122;48.208;11.174;2023-10-31T10:34:35;2.97;;;1.37;;
6177;SDS011;3122;48.208;11.174;2023-10-31T10:39:35;1.53;;;1.30;;
6177;SDS011;3122;48.208;11.174;2023-10-31T10:44:39;2.37;;;1.37;;
6177;SDS011;3122;48.208;11.174;2023-10-31T10:49:44;2.43;;;1.50;;
6177;SDS011;3122;48.208;11.174;2023-10-31T11:00:01;1.93;;;1.17;;
6177;SDS011;3122;48.208;11.174;2023-10-31T11:05:05;4.53;;;1.47;;
6177;SDS011;3122;48.208;11.174;2023-10-31T11:10:07;4.73;;;1.43;;
6177;SDS011;3122;48.208;11.174;2023-10-31T11:15:09;2.73;;;1.53;;
6177;SDS011;3122;48.208;11.174;2023-10-31T11:20:12;2.73;;;1.10;;
6177;SDS011;3122;48.208;11.174;2023-10-31T11:25:15;2.67;;;1.10;;
6177;SDS011;3122;48.208;11.174;2023-10-31T11:30:29;2.80;;;1.40;;
6177;SDS011;3122;48.208;11.174;2023-10-31T11:35:35;1.43;;;1.33;;
6177;SDS011;3122;48.208;11.174;2023-10-31T11:45:45;1.97;;;1.13;;
6177;SDS011;3122;48.208;11.174;2023-10-31T11:50:47;2.67;;;1.53;;
6177;SDS011;3122;48.208;11.174;2023-10-31T11:55:48;6.00;;;1.40;;
6177;SDS011;3122;48.208;11.174;2023-10-31T12:00:49;3.10;;;1.40;;
6177;SDS011;3122;48.208;11.174;2023-10-31T12:11:02;1.30;;;1.20;;
6177;SDS011;3122;48.208;11.174;2023-10-31T12:16:04;3.37;;;1.33;;
6177;SDS011;3122;48.208;11.174;2023-10-31T12:21:06;1.30;;;1.20;;
6177;SDS011;3122;48.208;11.174;2023-10-31T12:26:14;1.90;;;1.40;;
6177;SDS011;3122;48.208;11.174;2023-10-31T12:31:22;1.37;;;1.27;;
6177;SDS011;3122;48.208;11.174;2023-10-31T12:36:23;1.40;;;1.30;;
6177;SDS011;3122;48.208;11.174;2023-10-31T12:41:25;6.47;;;1.40;;
6177;SDS011;3122;48.208;11.174;2023-10-31T12:46:31;4.10;;;2.97;;
6177;SDS011;3122;48.208;11.174;2023-10-31T12:51:32;2.33;;;2.13;;
6177;SDS011;3122;48.208;11.174;2023-10-31T12:56:39;3.70;;;2.80;;
6177;SDS011;3122;48.208;11.174;2023-10-31T13:01:43;2.37;;;2.17;;
6177;SDS011;3122;48.208;11.174;2023-10-31T13:06:54;2.73;;;1.60;;
6177;SDS011;3122;48.208;11.174;2023-10-31T13:12:02;2.80;;;2.60;;
6177;SDS011;3122;48.208;11.174;2023-10-31T13:17:04;2.00;;;1.87;;
6177;SDS011;3122;48.208;11.174;2023-10-31T13:22:04;3.20;;;2.70;;
6177;SDS011;3122;48.208;11.174;2023-10-31T13:27:05;1.70;;;1.60;;
6177;SDS011;3122;48.208;11.174;2023-10-31T13:32:06;1.70;;;1.60;;
6177;SDS011;3122;48.208;11.174;2023-10-31T13:37:07;1.90;;;1.67;;
6177;SDS011;3122;48.208;11.174;2023-10-31T13:42:08;3.23;;;1.63;;
6177;SDS011;3122;48.208;11.174;2023-10-31T13:47:10;1.60;;;1.50;;
6177;SDS011;3122;48.208;11.174;2023-10-31T13:52:10;1.93;;;1.30;;
6177;SDS011;3122;48.208;11.174;2023-10-31T13:57:11;1.57;;;1.47;;
6177;SDS011;3122;48.208;11.174;2023-10-31T14:02:12;2.70;;;2.50;;
6177;SDS011;3122;48.208;11.174;2023-10-31T14:07:19;2.23;;;2.00;;
6177;SDS011;3122;48.208;11.174;2023-10-31T14:12:24;2.47;;;2.27;;
6177;SDS011;3122;48.208;11.174;2023-10-31T14:17:25;2.20;;;2.10;;
6177;SDS011;3122;48.208;11.174;2023-10-31T14:22:26;3.00;;;2.70;;
6177;SDS011;3122;48.208;11.174;2023-10-31T14:27:28;3.33;;;3.13;;
6177;SDS011;3122;48.208;11.174;2023-10-31T14:32:28;4.17;;;3.77;;
6177;SDS011;3122;48.208;11.174;2023-10-31T14:37:29;3.87;;;2.83;;
6177;SDS011;3122;48.208;11.174;2023-10-31T14:42:29;4.03;;;2.90;;
6177;SDS011;3122;48.208;11.174;2023-10-31T14:47:30;4.83;;;2.10;;
6177;SDS011;3122;48.208;11.174;2023-10-31T14:52:30;3.20;;;2.13;;
6177;SDS011;3122;48.208;11.174;2023-10-31T14:57:31;2.83;;;2.33;;
6177;SDS011;3122;48.208;11.174;2023-10-31T15:02:32;5.43;;;3.73;;
6177;SDS011;3122;48.208;11.174;2023-10-31T15:07:34;2.77;;;2.30;;
6177;SDS011;3122;48.208;11.174;2023-10-31T15:12:35;2.50;;;1.97;;
6177;SDS011;3122;48.208;11.174;2023-10-31T15:17:35;4.63;;;2.20;;
6177;SDS011;3122;48.208;11.174;2023-10-31T15:22:36;2.20;;;2.00;;
6177;SDS011;3122;48.208;11.174;2023-10-31T15:27:37;1.80;;;1.70;;
6177;SDS011;3122;48.208;11.174;2023-10-31T15:32:38;2.67;;;2.30;;
6177;SDS011;3122;48.208;11.174;2023-10-31T15:37:38;2.53;;;2.00;;
6177;SDS011;3122;48.208;11.174;2023-10-31T15:42:39;1.80;;;1.70;;
6177;SDS011;3122;48.208;11.174;2023-10-31T15:47:39;3.27;;;2.63;;
6177;SDS011;3122;48.208;11.174;2023-10-31T15:52:40;7.53;;;2.30;;
6177;SDS011;3122;48.208;11.174;2023-10-31T15:57:41;4.00;;;2.00;;
6177;SDS011;3122;48.208;11.174;2023-10-31T16:02:42;2.30;;;2.10;;
6177;SDS011;3122;48.208;11.174;2023-10-31T16:07:42;4.80;;;2.47;;
6177;SDS011;3122;48.208;11.174;2023-10-31T16:12:43;2.43;;;2.23;;
6177;SDS011;3122;48.208;11.174;2023-10-31T16:17:44;2.90;;;2.50;;
6177;SDS011;3122;48.208;11.174;2023-10-31T16:22:44;3.53;;;2.40;;
6177;SDS011;3122;48.208;11.174;2023-10-31T16:27:45;2.50;;;2.30;;
6177;SDS011;3122;48.208;11.174;2023-10-31T16:32:45;3.13;;;2.00;;
6177;SDS011;3122;48.208;11.174;2023-10-31T16:37:46;2.30;;;2.10;;
6177;SDS011;3122;48.208;11.174;2023-10-31T16:42:46;3.67;;;1.80;;
6177;SDS011;3122;48.208;11.174;2023-10-31T16:47:47;2.80;;;1.77;;
6177;SDS011;3122;48.208;11.174;2023-10-31T16:52:48;4.03;;;2.40;;
6177;SDS011;3122;48.208;11.174;2023-10-31T16:57:48;1.93;;;1.63;;
6177;SDS011;3122;48.208;11.174;2023-10-31T17:02:49;1.87;;;1.70;;
6177;SDS011;3122;48.208;11.174;2023-10-31T17:07:49;2.77;;;2.57;;
6177;SDS011;3122;48.208;11.174;2023-10-31T17:12:52;3.30;;;2.30;;
6177;SDS011;3122;48.208;11.174;2023-10-31T17:17:53;1.70;;;1.60;;
6177;SDS011;3122;48.208;11.174;2023-10-31T17:22:53;4.30;;;3.30;;
6177;SDS011;3122;48.208;11.174;2023-10-31T17:27:54;3.70;;;2.47;;
6177;SDS011;3122;48.208;11.174;2023-10-31T17:32:55;2.80;;;2.60;;
6177;SDS011;3122;48.208;11.174;2023-10-31T17:37:55;2.00;;;1.90;;
6177;SDS011;3122;48.208;11.174;2023-10-31T17:42:56;3.50;;;2.70;;
6177;SDS011;3122;48.208;11.174;2023-10-31T17:47:57;3.10;;;2.83;;
6177;SDS011;3122;48.208;11.174;2023-10-31T17:52:58;2.43;;;2.23;;
6177;SDS011;3122;48.208;11.174;2023-10-31T17:57:59;2.30;;;2.20;;
6177;SDS011;3122;48.208;11.174;2023-10-31T18:03:00;4.07;;;3.53;;
6177;SDS011;3122;48.208;11.174;2023-10-31T18:08:01;2.80;;;2.60;;
6177;SDS011;3122;48.208;11.174;2023-10-31T18:13:01;3.87;;;3.60;;
6177;SDS011;3122;48.208;11.174;2023-10-31T18:18:02;3.43;;;2.87;;
6177;SDS011;3122;48.208;11.174;2023-10-31T18:23:03;5.30;;;4.80;;
6177;SDS011;3122;48.208;11.174;2023-10-31T18:28:04;7.70;;;6.57;;
6177;SDS011;3122;48.208;11.174;2023-10-31T18:33:04;10.17;;;9.10;;
6177;SDS011;3122;48.208;11.174;2023-10-31T18:38:05;6.47;;;5.87;;
6177;SDS011;3122;48.208;11.174;2023-10-31T18:43:05;6.00;;;4.83;;
6177;SDS011;3122;48.208;11.174;2023-10-31T18:48:06;3.67;;;2.73;;
6177;SDS011;3122;48.208;11.174;2023-10-31T18:53:06;6.80;;;4.50;;
6177;SDS011;3122;48.208;11.174;2023-10-31T18:58:07;2.97;;;2.77;;
6177;SDS011;3122;48.208;11.174;2023-10-31T19:03:08;2.20;;;2.10;;
6177;SDS011;3122;48.208;11.174;2023-10-31T19:08:08;2.50;;;2.30;;
6177;SDS011;3122;48.208;11.174;2023-10-31T19:13:11;3.73;;;3.50;;
6177;SDS011;3122;48.208;11.174;2023-10-31T19:18:11;5.07;;;4.50;;
6177;SDS011;3122;48.208;11.174;2023-10-31T19:23:12;3.50;;;3.23;;
6177;SDS011;3122;48.208;11.174;2023-10-31T19:28:12;6.23;;;3.37;;
6177;SDS011;3122;48.208;11.174;2023-10-31T19:33:14;3.30;;;3.10;;
6177;SDS011;3122;48.208;11.174;2023-10-31T19:38:14;4.33;;;3.93;;
6177;SDS011;3122;48.208;11.174;2023-10-31T19:43:15;6.17;;;3.57;;
6177;SDS011;3122;48.208;11.174;2023-10-31T19:48:15;3.73;;;3.43;;
6177;SDS011;3122;48.208;11.174;2023-10-31T19:53:16;2.93;;;2.73;;
6177;SDS011;3122;48.208;11.174;2023-10-31T19:58:17;4.40;;;4.00;;
6177;SDS011;3122;48.208;11.174;2023-10-31T20:03:18;2.90;;;2.70;;
6177;SDS011;3122;48.208;11.174;2023-10-31T20:08:19;5.10;;;3.10;;
6177;SDS011;3122;48.208;11.174;2023-10-31T20:13:19;2.40;;;2.30;;
6177;SDS011;3122;48.208;11.174;2023-10-31T20:18:22;2.53;;;2.43;;
6177;SDS011;3122;48.208;11.174;2023-10-31T20:23:24;3.03;;;2.83;;
6177;SDS011;3122;48.208;11.174;2023-10-31T20:28:25;2.33;;;2.20;;
6177;SDS011;3122;48.208;11.174;2023-10-31T20:33:26;3.07;;;2.80;;
6177;SDS011;3122;48.208;11.174;2023-10-31T20:38:27;3.97;;;3.67;;
6177;SDS011;3122;48.208;11.174;2023-10-31T20:43:27;3.57;;;1.83;;
6177;SDS011;3122;48.208;11.174;2023-10-31T20:48:28;2.03;;;1.90;;
6177;SDS011;3122;48.208;11.174;2023-10-31T20:53:29;2.27;;;2.17;;
6177;SDS011;3122;48.208;11.174;2023-10-31T20:58:29;3.00;;;2.70;;
6177;SDS011;3122;48.208;11.174;2023-10-31T21:03:30;2.37;;;2.27;;
6177;SDS011;3122;48.208;11.174;2023-10-31T21:08:31;2.53;;;2.33;;
6177;SDS011;3122;48.208;11.174;2023-10-31T21:13:31;4.03;;;2.40;;
6177;SDS011;3122;48.208;11.174;2023-10-31T21:18:32;1.80;;;1.60;;
6177;SDS011;3122;48.208;11.174;2023-10-31T21:23:33;1.80;;;1.70;;
6177;SDS011;3122;48.208;11.174;2023-10-31T21:28:34;1.70;;;1.60;;
6177;SDS011;3122;48.208;11.174;2023-10-31T21:33:34;1.80;;;1.70;;
6177;SDS011;3122;48.208;11.174;2023-10-31T21:38:35;1.80;;;1.70;;
6177;SDS011;3122;48.208;11.174;2023-10-31T21:43:37;1.80;;;1.70;;
6177;SDS011;3122;48.208;11.174;2023-10-31T21:48:38;2.73;;;1.93;;
6177;SDS011;3122;48.208;11.174;2023-10-31T21:53:38;1.70;;;1.60;;
6177;SDS011;3122;48.208;11.174;2023-10-31T21:58:39;2.20;;;1.40;;
6177;SDS011;3122;48.208;11.174;2023-10-31T22:03:40;2.33;;;2.10;;
6177;SDS011;3122;48.208;11.174;2023-10-31T22:08:40;2.53;;;1.97;;
6177;SDS011;3122;48.208;11.174;2023-10-31T22:13:41;8.03;;;3.47;;
6177;SDS011;3122;48.208;11.174;2023-10-31T22:18:42;5.90;;;3.47;;
6177;SDS011;3122;48.208;11.174;2023-10-31T22:23:43;3.40;;;2.23;;
6177;SDS011;3122;48.208;11.174;2023-10-31T22:28:43;5.70;;;2.80;;
6177;SDS011;3122;48.208;11.174;2023-10-31T22:33:44;3.33;;;1.90;;
6177;SDS011;3122;48.208;11.174;2023-10-31T22:38:44;1.70;;;1.60;;
6177;SDS011;3122;48.208;11.174;2023-10-31T22:43:45;2.17;;;1.70;;
6177;SDS011;3122;48.208;11.174;2023-10-31T22:48:45;1.60;;;1.50;;
6177;SDS011;3122;48.208;11.174;2023-10-31T22:53:46;1.43;;;1.20;;
6177;SDS011;3122;48.208;11.174;2023-10-31T22:58:46;5.63;;;1.40;;
6177;SDS011;3122;48.208;11.174;2023-10-31T23:03:47;2.73;;;1.30;;
6177;SDS011;3122;48.208;11.174;2023-10-31T23:08:48;1.53;;;1.43;;
6177;SDS011;3122;48.208;11.174;2023-10-31T23:13:48;1.53;;;1.37;;
6177;SDS011;3122;48.208;11.174;2023-10-31T23:18:49;1.50;;;1.40;;
6177;SDS011;3122;48.208;11.174;2023-10-31T23:23:49;1.33;;;1.23;;
6177;SDS011;3122;48.208;11.174;2023-10-31T23:28:50;1.50;;;1.40;;
6177;SDS011;3122;48.208;11.174;2023-10-31T23:33:50;1.70;;;1.30;;
6177;SDS011;3122;48.208;11.174;2023-10-31T23:38:51;1.60;;;1.27;;
6177;SDS011;3122;48.208;11.174;2023-10-31T23:43:51;1.50;;;1.33;;
6177;SDS011;3122;48.208;11.174;2023-10-31T23:48:53;1.37;;;1.20;;
6177;SDS011;3122;48.208;11.174;2023-10-31T23:53:54;1.57;;;1.40;;
6177;SDS011;3122;48.208;11.174;2023-10-31T23:58:54;2.43;;;1.30;;
